This is the latest recevied weather packets stored in our database for station/object KB2UHF-8. If no packets are shown the sender has not sent any weather packets the latest 10 day(s).
| Time | Temp. | Humidity | Pressure | Rain* | Wind** | Luminosity | Snow |
|---|---|---|---|---|---|---|---|
| 1777801516 | 10.56° C | 57% | 1010.5 hPa | 0 mm | - | 0 W/m² | - |
| 1777799116 | 10.56° C | 51% | 1010.6 hPa | 0 mm | - | 0 W/m² | - |
| 1777792516 | 10° C | 50% | 1011.4 hPa | 0 mm | - | 0 W/m² | - |
| 1777791316 | 10° C | 50% | 1011.6 hPa | 0 mm | - | 0 W/m² | - |
| 1777785937 | 9.44° C | 50% | 1012.2 hPa | 0 mm | - | 0 W/m² | - |
| 1777781116 | 10° C | 49% | 1012.8 hPa | 0 mm | - | 0 W/m² | - |
| 1777779316 | 10° C | 48% | 1013 hPa | 0 mm | - | 0 W/m² | - |
| 1777778116 | 10.56° C | 47% | 1013.1 hPa | 0 mm | - | 0 W/m² | - |
| 1777764916 | 15° C | 32% | 1013.5 hPa | 0 mm | - | 81 W/m² | - |
| 1777764336 | 15° C | 31% | 1013.6 hPa | 0 mm | - | 237 W/m² | - |
| 1777753516 | 14.44° C | 35% | 1015.6 hPa | 0 mm | - | 677 W/m² | - |
| 1777749916 | 13.33° C | 34% | 1016.5 hPa | 0 mm | - | 1063 W/m² | - |
| 1777744516 | 12.22° C | 38% | 1017.7 hPa | 0 mm | - | 394 W/m² | - |
| 1777742136 | 12.22° C | 43% | 1018.3 hPa | 0 mm | - | 1042 W/m² | - |
| 1777737316 | 11.11° C | 45% | 1019 hPa | 0 mm | - | 792 W/m² | - |
| 1777735516 | 10.56° C | 43% | 1019.1 hPa | 0 mm | - | 729 W/m² | - |
| 1777724719 | 3.33° C | 74% | 1019.1 hPa | 0 mm | - | 106 W/m² | - |
| 1777722317 | 0.56° C | 85% | 1018.9 hPa | 0 mm | - | 40 W/m² | - |
| 1777721137 | 0° C | 84% | 1018.8 hPa | 0 mm | - | 18 W/m² | - |
| 1777720517 | -0.56° C | 84% | 1018.8 hPa | 0 mm | - | 11 W/m² | - |
| 1777719917 | -0.56° C | 85% | 1018.7 hPa | 0 mm | - | 5 W/m² | - |
| 1777718717 | -1.11° C | 84% | 1018.8 hPa | 0 mm | - | 0 W/m² | - |
| 1777716917 | 0.56° C | 79% | 1018.8 hPa | 0 mm | - | 0 W/m² | - |
| 1777716317 | 0.56° C | 79% | 1018.9 hPa | 0 mm | - | 0 W/m² | - |
| 1777715157 | 0.56° C | 75% | 1018.9 hPa | 0 mm | - | 0 W/m² | - |
* Rain latest hour (hover to see other rain measurements)
** Current wind speed in m/s (hover to see current wind gust speed)